Time;durP1;ratioP1;P1;durP2;ratioP2;P2;SDS_P1;SDS_P2;PMS_P1;PMS_P2;Temp;Humidity;BMP_temperature;BMP_pressure;BME280_temperature;BME280_humidity;BME280_pressure;Samples;Min_cycle;Max_cycle;Signal;HPM_P1;HPM_P2
2024/03/14 00:01:41;;;;;;;14.45;4.32;;;8.00;99.90;;;;;;5012943;28;20034;-73
2024/03/14 00:04:06;;;;;;;30.13;6.50;;;8.00;99.90;;;;;;5003704;28;20018;-73
2024/03/14 00:06:32;;;;;;;4.80;3.55;;;7.90;99.90;;;;;;5008063;28;20053;-72
2024/03/14 00:08:57;;;;;;;5.88;3.90;;;7.90;99.90;;;;;;5008840;28;20119;-72
2024/03/14 00:11:29;;;;;;;5.32;4.22;;;8.00;99.90;;;;;;5004692;28;20420;-73
2024/03/14 00:13:55;;;;;;;5.15;3.60;;;8.00;99.90;;;;;;5007574;28;20026;-73
2024/03/14 00:16:21;;;;;;;5.72;4.18;;;8.00;99.90;;;;;;5006891;28;20030;-74
2024/03/14 00:18:47;;;;;;;7.18;4.30;;;8.00;99.90;;;;;;5010698;28;20080;-73
2024/03/14 00:21:14;;;;;;;7.22;4.50;;;7.90;99.90;;;;;;5008382;28;20022;-73
2024/03/14 00:23:40;;;;;;;5.15;4.28;;;7.90;99.90;;;;;;5006152;28;20034;-73
2024/03/14 00:26:08;;;;;;;9.50;4.63;;;7.80;99.90;;;;;;5007622;28;20396;-72
2024/03/14 00:28:35;;;;;;;6.35;4.60;;;7.80;99.90;;;;;;5002578;28;20066;-73
2024/03/14 00:31:00;;;;;;;6.90;4.68;;;7.80;99.90;;;;;;5011416;28;20099;-72
2024/03/14 00:33:26;;;;;;;7.78;4.57;;;7.90;99.90;;;;;;5028168;28;20041;-72
2024/03/14 00:35:52;;;;;;;6.78;4.47;;;7.80;99.90;;;;;;5022011;28;20052;-73
2024/03/14 00:38:19;;;;;;;6.40;4.35;;;7.90;99.90;;;;;;5021536;28;20021;-73
2024/03/14 00:40:45;;;;;;;6.72;4.65;;;7.80;99.90;;;;;;5025388;28;20010;-72
2024/03/14 00:43:13;;;;;;;8.35;4.85;;;7.90;99.90;;;;;;5024568;28;20028;-73
2024/03/14 00:45:39;;;;;;;7.40;4.53;;;7.80;99.90;;;;;;5023156;28;20507;-73
2024/03/14 00:48:05;;;;;;;5.65;4.20;;;7.90;99.90;;;;;;5021519;28;20088;-71
2024/03/14 00:50:33;;;;;;;6.22;3.95;;;7.80;99.90;;;;;;5030583;28;20486;-73
2024/03/14 00:53:02;;;;;;;6.60;4.93;;;7.70;99.90;;;;;;5034101;28;20573;-71
2024/03/14 00:55:30;;;;;;;;;;;7.70;99.90;;;;;;5028736;28;20501;-72
2024/03/14 00:58:01;;;;;;;5.72;4.22;;;7.70;99.90;;;;;;5027490;28;19913;-73
2024/03/14 01:00:27;;;;;;;44.67;5.93;;;7.70;99.90;;;;;;5026294;28;20030;-73
2024/03/14 01:02:56;;;;;;;122.20;10.93;;;7.60;99.90;;;;;;5029405;28;20053;-73
2024/03/14 01:05:21;;;;;;;84.40;10.05;;;7.00;99.90;;;;;;5026711;28;20036;-73
2024/03/14 01:07:48;;;;;;;107.13;12.23;;;6.70;99.90;;;;;;5025847;28;20033;-73
2024/03/14 01:10:14;;;;;;;4.95;2.50;;;6.50;99.90;;;;;;5027378;28;20033;-72
2024/03/14 01:12:40;;;;;;;2.83;2.60;;;6.60;99.90;;;;;;5031790;28;20071;-73
2024/03/14 01:15:06;;;;;;;2.15;2.00;;;6.70;99.90;;;;;;5031158;28;20021;-73
2024/03/14 01:17:33;;;;;;;68.72;8.65;;;6.70;99.90;;;;;;5033091;28;20135;-73
2024/03/14 01:19:58;;;;;;;9.15;3.13;;;6.60;99.90;;;;;;5024807;28;20021;-72
2024/03/14 01:22:24;;;;;;;3.40;2.35;;;6.40;99.90;;;;;;5031948;28;20063;-72
2024/03/14 01:24:50;;;;;;;8.27;3.15;;;6.50;99.90;;;;;;5029579;28;20548;-72
2024/03/14 01:27:18;;;;;;;3.22;2.85;;;6.60;99.90;;;;;;5032707;28;20096;-73
2024/03/14 01:29:46;;;;;;;3.20;2.92;;;6.70;99.90;;;;;;5026206;28;20029;-73
2024/03/14 01:32:12;;;;;;;;;;;6.70;99.90;;;;;;5028766;28;20041;-73
2024/03/14 01:34:38;;;;;;;11.30;3.45;;;6.80;99.90;;;;;;5025036;28;20377;-73
2024/03/14 01:37:06;;;;;;;5.22;3.60;;;6.80;99.90;;;;;;5028476;28;20032;-72
2024/03/14 01:39:35;;;;;;;5.78;3.42;;;6.90;99.90;;;;;;5028950;28;20060;-72
2024/03/14 01:42:02;;;;;;;5.07;3.67;;;6.90;99.90;;;;;;5026748;28;20628;-73
2024/03/14 01:44:56;;;;;;;10.70;4.28;;;6.90;99.90;;;;;;5028852;28;20104;-73
2024/03/14 01:47:22;;;;;;;5.18;3.53;;;7.00;99.90;;;;;;5030564;28;20052;-73
2024/03/14 01:49:50;;;;;;;5.72;3.83;;;7.00;99.90;;;;;;5032223;28;20471;-73
2024/03/14 01:52:16;;;;;;;5.03;3.20;;;7.00;99.90;;;;;;5021973;28;20034;-73
2024/03/14 01:54:42;;;;;;;10.07;3.28;;;7.00;99.90;;;;;;5028688;28;20158;-73
2024/03/14 01:57:09;;;;;;;6.80;3.08;;;6.90;99.90;;;;;;5022255;28;20269;-73
2024/03/14 01:59:38;;;;;;;3.92;2.78;;;6.90;99.90;;;;;;5026916;28;20078;-75
2024/03/14 02:02:06;;;;;;;4.82;3.15;;;6.90;99.90;;;;;;5028149;28;20029;-73
2024/03/14 02:04:56;;;;;;;2.97;2.65;;;6.90;99.90;;;;;;5027315;28;20116;-73
2024/03/14 02:07:27;;;;;;;4.70;2.90;;;6.70;99.90;;;;;;5029842;28;20029;-72
2024/03/14 02:09:52;;;;;;;18.02;5.18;;;6.60;99.90;;;;;;5028641;28;20390;-72
2024/03/14 02:12:18;;;;;;;8.60;4.45;;;6.40;99.90;;;;;;5027559;28;20037;-72
2024/03/14 02:14:44;;;;;;;5.68;3.58;;;6.30;99.90;;;;;;5027103;28;20014;-73
2024/03/14 02:17:10;;;;;;;6.53;5.55;;;6.40;99.90;;;;;;5025389;28;20029;-73
2024/03/14 02:19:38;;;;;;;12.52;8.25;;;6.50;99.90;;;;;;5025162;28;20064;-73
2024/03/14 02:22:04;;;;;;;7.07;5.88;;;6.40;99.90;;;;;;5026487;28;20036;-73
2024/03/14 02:24:30;;;;;;;6.32;4.20;;;6.50;99.90;;;;;;5024545;28;20423;-73
2024/03/14 02:26:56;;;;;;;6.13;4.05;;;6.50;99.90;;;;;;5022197;28;20022;-73
2024/03/14 02:29:22;;;;;;;4.75;3.55;;;6.50;99.90;;;;;;5029095;28;20109;-73
2024/03/14 02:31:51;;;;;;;69.78;11.13;;;6.60;99.90;;;;;;5024963;28;20081;-73
2024/03/14 02:34:18;;;;;;;4.30;3.45;;;6.50;99.90;;;;;;5040397;28;20053;-75
2024/03/14 02:36:46;;;;;;;4.35;3.42;;;6.50;99.90;;;;;;5042147;28;20002;-73
2024/03/14 02:39:14;;;;;;;4.05;3.13;;;6.50;99.90;;;;;;5040733;28;20016;-73
2024/03/14 02:41:40;;;;;;;3.50;2.83;;;6.50;99.90;;;;;;5038538;28;20125;-74
2024/03/14 02:44:16;;;;;;;7.30;3.70;;;6.50;99.90;;;;;;5042434;28;20030;-73
2024/03/14 02:46:42;;;;;;;9.00;3.22;;;6.50;99.90;;;;;;5036762;28;20033;-75
2024/03/14 02:49:10;;;;;;;13.48;3.95;;;6.50;99.90;;;;;;5043319;28;20028;-77
2024/03/14 02:51:37;;;;;;;4.22;2.95;;;6.50;99.90;;;;;;5042826;28;20112;-76
2024/03/14 02:54:05;;;;;;;4.35;3.40;;;6.50;99.90;;;;;;5038337;28;20680;-77
2024/03/14 02:56:34;;;;;;;5.15;3.40;;;6.50;99.90;;;;;;5040391;28;20177;-73
2024/03/14 02:59:00;;;;;;;4.25;3.50;;;6.50;99.90;;;;;;5033128;28;20032;-73
2024/03/14 03:01:26;;;;;;;24.40;7.68;;;6.50;99.90;;;;;;5036510;28;20289;-73
2024/03/14 03:03:55;;;;;;;114.40;12.30;;;6.50;99.90;;;;;;5042514;28;20514;-76
2024/03/14 03:06:21;;;;;;;35.40;7.32;;;6.20;99.90;;;;;;5029459;28;20057;-79
2024/03/14 03:08:47;;;;;;;56.55;5.00;;;5.90;99.90;;;;;;5032955;28;20414;-75
2024/03/14 03:11:18;;;;;;;14.30;4.45;;;5.60;99.90;;;;;;5031738;28;20021;-75
2024/03/14 03:13:44;;;;;;;4.88;3.58;;;5.60;99.90;;;;;;5031704;28;20033;-74
2024/03/14 03:16:11;;;;;;;4.88;3.28;;;5.70;99.90;;;;;;5029108;28;20028;-77
2024/03/14 03:18:38;;;;;;;6.22;3.50;;;5.80;99.90;;;;;;5031098;28;20029;-78
2024/03/14 03:21:05;;;;;;;4.50;3.03;;;5.80;99.90;;;;;;5029724;28;20022;-77
2024/03/14 03:23:30;;;;;;;8.35;3.70;;;5.80;99.90;;;;;;5030758;28;20060;-75
2024/03/14 03:25:56;;;;;;;4.20;3.03;;;5.90;99.90;;;;;;5032385;28;20045;-79
2024/03/14 03:28:22;;;;;;;5.25;3.38;;;5.90;99.90;;;;;;5028792;28;20052;-76
2024/03/14 03:30:47;;;;;;;11.88;4.78;;;6.00;99.90;;;;;;5025374;28;20040;-78
2024/03/14 03:33:18;;;;;;;13.00;4.80;;;6.00;99.90;;;;;;5029592;28;20029;-73
2024/03/14 03:35:45;;;;;;;16.98;5.35;;;6.00;99.90;;;;;;5018404;28;20029;-73
2024/03/14 03:38:13;;;;;;;20.05;4.95;;;5.90;99.90;;;;;;5023339;28;20021;-72
2024/03/14 03:40:39;;;;;;;;;;;5.70;99.90;;;;;;5027890;28;20430;-72
2024/03/14 03:43:07;;;;;;;20.58;4.60;;;5.70;99.90;;;;;;5026812;28;19912;-72
2024/03/14 03:45:32;;;;;;;5.05;3.25;;;5.60;99.90;;;;;;5027031;28;20379;-73
2024/03/14 03:47:58;;;;;;;4.18;3.20;;;5.70;99.90;;;;;;5019367;28;20037;-73
2024/03/14 03:50:24;;;;;;;6.53;3.88;;;5.70;99.90;;;;;;5028032;28;20029;-71
2024/03/14 03:52:50;;;;;;;13.25;5.00;;;5.70;99.90;;;;;;5028454;28;21245;-73
2024/03/14 03:55:16;;;;;;;4.35;3.28;;;5.70;99.90;;;;;;5025300;28;20399;-73
2024/03/14 03:57:46;;;;;;;15.20;5.68;;;5.70;99.90;;;;;;5026098;28;20036;-73
2024/03/14 04:02:57;;;;;;;39.20;5.90;;;5.60;99.90;;;;;;5026709;28;20049;-72
2024/03/14 04:05:25;;;;;;;4.10;2.60;;;5.50;99.90;;;;;;5025397;28;20026;-72
2024/03/14 04:07:55;;;;;;;26.42;4.07;;;5.60;99.90;;;;;;5025664;28;20037;-72
2024/03/14 04:10:27;;;;;;;5.18;3.85;;;5.60;99.90;;;;;;5023429;28;20025;-72
2024/03/14 04:12:56;;;;;;;11.00;3.03;;;5.50;99.90;;;;;;5027251;28;20049;-72
2024/03/14 04:15:22;;;;;;;3.35;2.63;;;5.40;99.90;;;;;;5026453;28;20497;-73
2024/03/14 04:17:51;;;;;;;3.33;2.50;;;5.50;99.90;;;;;;5027441;28;20534;-73
2024/03/14 04:20:17;;;;;;;3.38;2.42;;;5.60;99.90;;;;;;5027909;28;20380;-72
2024/03/14 04:22:47;;;;;;;2.45;2.25;;;5.60;99.90;;;;;;5024594;28;20037;-73
2024/03/14 04:25:17;;;;;;;22.83;7.07;;;5.70;99.90;;;;;;5030908;28;20473;-73
2024/03/14 04:27:44;;;;;;;4.00;3.70;;;5.60;99.90;;;;;;5026033;28;20029;-73
2024/03/14 04:30:16;;;;;;;4.78;3.80;;;5.60;99.90;;;;;;5029094;28;20097;-73
2024/03/14 04:32:44;;;;;;;8.73;3.70;;;5.60;99.90;;;;;;5027869;28;20091;-72
2024/03/14 04:35:10;;;;;;;6.38;4.28;;;5.60;99.90;;;;;;5028777;28;20510;-73
2024/03/14 04:37:37;;;;;;;4.28;3.58;;;5.60;99.90;;;;;;5030750;28;20103;-73
2024/03/14 04:40:10;;;;;;;5.07;3.55;;;5.60;99.90;;;;;;5027181;28;20269;-73
2024/03/14 04:42:37;;;;;;;3.25;2.83;;;5.70;99.90;;;;;;5030476;28;20052;-73
2024/03/14 04:45:03;;;;;;;6.53;3.72;;;5.60;99.90;;;;;;5026665;28;20124;-72
2024/03/14 04:47:29;;;;;;;4.00;3.20;;;5.60;99.90;;;;;;5029800;28;20499;-73
2024/03/14 04:49:54;;;;;;;3.58;3.20;;;5.60;99.90;;;;;;5025306;28;20030;-73
2024/03/14 04:52:20;;;;;;;3.85;3.17;;;5.60;99.90;;;;;;5029337;28;20052;-71
2024/03/14 04:54:46;;;;;;;3.50;2.97;;;5.60;99.90;;;;;;5032163;28;20462;-72
2024/03/14 04:57:12;;;;;;;4.50;3.03;;;5.70;99.90;;;;;;5029192;28;20024;-72
2024/03/14 04:59:40;;;;;;;4.90;3.40;;;5.70;99.90;;;;;;5029286;28;20034;-72
2024/03/14 05:02:07;;;;;;;4.05;3.05;;;5.70;99.90;;;;;;5026516;28;20037;-73
2024/03/14 05:04:33;;;;;;;3.78;2.88;;;5.60;99.90;;;;;;5027129;28;20585;-72
2024/03/14 05:06:58;;;;;;;3.58;2.70;;;5.70;99.90;;;;;;5045214;28;20088;-72
2024/03/14 05:09:24;;;;;;;3.80;2.97;;;5.70;99.90;;;;;;5027473;28;20049;-73
2024/03/14 05:11:50;;;;;;;3.47;2.83;;;5.70;99.90;;;;;;5031743;28;20022;-73
2024/03/14 05:14:17;;;;;;;3.97;2.53;;;5.80;99.90;;;;;;5026155;28;20069;-74
2024/03/14 05:16:43;;;;;;;5.90;3.20;;;5.80;99.90;;;;;;5027758;28;20542;-73
2024/03/14 05:19:09;;;;;;;3.17;2.83;;;5.80;99.90;;;;;;5030209;28;20080;-73
2024/03/14 05:21:35;;;;;;;3.45;2.83;;;5.80;99.90;;;;;;5032624;28;20025;-73
2024/03/14 05:24:01;;;;;;;2.78;2.42;;;5.70;99.90;;;;;;5028773;28;20258;-73
2024/03/14 05:26:31;;;;;;;2.85;2.33;;;5.60;99.90;;;;;;5028402;28;20116;-73
2024/03/14 05:28:56;;;;;;;6.32;2.97;;;5.70;99.90;;;;;;5024592;28;20565;-73
2024/03/14 05:31:25;;;;;;;2.97;2.65;;;5.70;99.90;;;;;;5027229;28;20041;-73
2024/03/14 05:33:51;;;;;;;3.97;2.72;;;5.50;99.90;;;;;;5029756;28;20037;-72
2024/03/14 05:36:17;;;;;;;2.90;2.70;;;5.20;99.90;;;;;;5026043;28;20025;-72
2024/03/14 05:38:43;;;;;;;13.82;3.58;;;5.00;99.90;;;;;;5026593;28;20407;-73
2024/03/14 05:41:09;;;;;;;3.03;2.42;;;4.90;99.90;;;;;;5024960;28;20029;-72
2024/03/14 05:43:35;;;;;;;7.53;2.80;;;5.10;99.90;;;;;;5028432;28;20036;-73
2024/03/14 05:46:04;;;;;;;3.20;2.80;;;5.10;99.90;;;;;;5025709;28;20394;-73
2024/03/14 05:48:30;;;;;;;2.72;2.40;;;5.20;99.90;;;;;;5029763;28;20034;-73
2024/03/14 05:50:56;;;;;;;6.05;2.42;;;5.30;99.90;;;;;;5025694;28;20065;-73
2024/03/14 05:53:28;;;;;;;4.03;2.95;;;5.30;99.90;;;;;;5024448;28;20038;-72
2024/03/14 05:55:54;;;;;;;5.00;2.80;;;5.20;99.90;;;;;;5029070;28;20032;-73
2024/03/14 05:58:21;;;;;;;4.90;2.95;;;5.30;99.90;;;;;;5024977;28;20021;-73
2024/03/14 06:00:47;;;;;;;4.18;2.85;;;5.40;99.90;;;;;;5028126;28;20397;-73
2024/03/14 06:03:13;;;;;;;4.82;3.40;;;5.40;99.90;;;;;;5042767;28;20036;-73
2024/03/14 06:05:39;;;;;;;21.90;4.18;;;5.50;99.90;;;;;;5024493;28;20431;-73
2024/03/14 06:08:05;;;;;;;3.97;3.10;;;5.50;99.90;;;;;;5027091;28;20112;-72
2024/03/14 06:10:34;;;;;;;5.18;3.55;;;5.50;99.90;;;;;;5018441;28;20026;-72
2024/03/14 06:13:03;;;;;;;4.43;3.13;;;5.50;99.90;;;;;;5025541;28;20063;-73
2024/03/14 06:15:29;;;;;;;4.95;3.15;;;5.50;99.90;;;;;;5027957;28;20631;-72
2024/03/14 06:17:55;;;;;;;3.13;2.78;;;5.60;99.90;;;;;;5028669;28;20112;-74
2024/03/14 06:20:22;;;;;;;7.13;3.47;;;5.60;99.90;;;;;;5028239;28;20017;-73
2024/03/14 06:22:48;;;;;;;10.50;3.60;;;5.60;99.90;;;;;;5027417;28;20041;-73
2024/03/14 06:25:34;;;;;;;5.78;3.88;;;5.60;99.90;;;;;;5028114;28;20112;-74
2024/03/14 06:28:02;;;;;;;6.00;3.90;;;5.60;99.90;;;;;;5018796;28;20159;-72
2024/03/14 06:30:30;;;;;;;15.43;4.72;;;5.70;99.90;;;;;;5022598;28;20068;-73
2024/03/14 06:32:56;;;;;;;7.10;4.25;;;5.70;99.90;;;;;;5027086;28;20216;-73
2024/03/14 06:35:23;;;;;;;6.25;3.90;;;5.70;99.90;;;;;;5025352;28;20579;-73
2024/03/14 06:37:53;;;;;;;7.00;4.25;;;5.70;99.90;;;;;;5027256;28;20033;-73
2024/03/14 06:40:21;;;;;;;8.77;4.35;;;5.70;99.90;;;;;;5024443;28;20026;-73
2024/03/14 06:42:49;;;;;;;8.93;4.40;;;5.80;99.90;;;;;;5019692;28;20582;-73
2024/03/14 06:45:19;;;;;;;5.97;4.20;;;5.80;99.90;;;;;;5023080;28;20038;-73
2024/03/14 06:47:45;;;;;;;12.95;4.45;;;5.80;99.90;;;;;;5023100;28;20028;-72
2024/03/14 06:50:12;;;;;;;9.63;4.78;;;5.90;99.90;;;;;;5024957;28;20116;-73
2024/03/14 06:52:38;;;;;;;14.18;4.80;;;5.90;99.90;;;;;;5026121;28;20048;-73
2024/03/14 06:55:06;;;;;;;44.50;7.22;;;5.90;99.90;;;;;;5025331;28;20738;-73
2024/03/14 06:57:34;;;;;;;20.15;7.47;;;5.90;99.90;;;;;;5025365;28;20060;-73
2024/03/14 07:00:09;;;;;;;16.58;4.85;;;6.00;99.90;;;;;;5027184;28;20776;-73
2024/03/14 07:02:38;;;;;;;65.55;9.43;;;6.00;99.90;;;;;;5022271;28;20055;-73
2024/03/14 07:05:04;;;;;;;38.13;8.25;;;6.00;99.90;;;;;;5026932;28;20105;-73
2024/03/14 07:07:30;;;;;;;46.42;8.15;;;6.00;99.90;;;;;;5025678;28;20044;-73
2024/03/14 07:09:55;;;;;;;25.17;5.55;;;6.00;99.90;;;;;;5027560;28;20395;-73
2024/03/14 07:12:21;;;;;;;26.13;6.55;;;6.10;99.90;;;;;;5027839;28;20040;-72
2024/03/14 07:14:47;;;;;;;14.60;8.05;;;6.10;99.90;;;;;;5027633;28;20191;-72
2024/03/14 07:17:13;;;;;;;7.30;3.95;;;6.20;99.90;;;;;;5028343;28;20025;-73
2024/03/14 07:19:39;;;;;;;21.02;5.85;;;6.20;99.90;;;;;;5042115;28;20038;-73
2024/03/14 07:22:05;;;;;;;35.28;7.93;;;6.20;99.90;;;;;;5028722;28;20072;-73
2024/03/14 07:24:31;;;;;;;13.18;5.10;;;6.30;99.90;;;;;;5022894;28;20021;-72
2024/03/14 07:26:58;;;;;;;25.45;6.78;;;6.30;99.90;;;;;;5028383;28;20372;-73
2024/03/14 07:29:23;;;;;;;24.75;6.32;;;6.40;99.90;;;;;;5025519;28;20452;-73
2024/03/14 07:31:51;;;;;;;15.35;5.22;;;6.30;99.90;;;;;;5024406;28;20120;-72
2024/03/14 07:34:18;;;;;;;7.30;4.68;;;6.30;99.90;;;;;;5027805;28;20044;-73
2024/03/14 07:36:44;;;;;;;7.43;3.53;;;6.30;99.90;;;;;;5022315;28;20181;-73
2024/03/14 07:39:14;;;;;;;23.25;4.60;;;6.40;99.90;;;;;;5023984;28;20052;-74
2024/03/14 07:41:41;;;;;;;11.38;3.53;;;6.40;99.90;;;;;;5025911;28;20033;-73
2024/03/14 07:44:07;;;;;;;16.02;4.60;;;6.30;99.90;;;;;;5028704;28;20104;-73
2024/03/14 07:46:33;;;;;;;36.35;4.50;;;6.50;99.90;;;;;;5025768;28;20113;-74
2024/03/14 07:48:59;;;;;;;14.05;3.25;;;6.50;99.90;;;;;;5019799;28;20439;-72
2024/03/14 07:51:27;;;;;;;5.88;3.88;;;6.40;99.90;;;;;;5026366;28;20044;-72
2024/03/14 07:53:53;;;;;;;17.60;3.85;;;6.40;99.90;;;;;;5028126;28;20099;-73
2024/03/14 07:56:20;;;;;;;9.13;3.30;;;6.60;99.90;;;;;;5028998;28;20045;-73
2024/03/14 07:58:46;;;;;;;4.68;4.13;;;6.70;99.90;;;;;;5032071;28;20025;-73
2024/03/14 08:01:16;;;;;;;5.53;3.80;;;6.60;99.90;;;;;;5032703;28;20026;-73
2024/03/14 08:03:47;;;;;;;3.90;3.35;;;6.70;99.90;;;;;;5035228;28;20244;-73
2024/03/14 08:06:19;;;;;;;4.40;2.65;;;6.70;99.90;;;;;;5045129;28;20173;-72
2024/03/14 08:08:45;;;;;;;5.68;3.88;;;6.80;99.90;;;;;;5033616;28;20246;-73
2024/03/14 08:11:14;;;;;;;13.38;11.00;;;6.80;99.90;;;;;;5036118;28;20481;-72
2024/03/14 08:13:41;;;;;;;3.55;3.13;;;6.90;99.90;;;;;;5033373;28;20029;-73
2024/03/14 08:16:18;;;;;;;2.10;1.92;;;7.00;99.90;;;;;;5035253;28;20050;-73
2024/03/14 08:18:46;;;;;;;5.72;4.43;;;6.80;99.90;;;;;;5035060;28;20132;-72
2024/03/14 08:21:13;;;;;;;5.22;4.13;;;6.90;99.90;;;;;;5034851;28;20678;-73
2024/03/14 08:23:42;;;;;;;4.32;3.30;;;7.10;99.90;;;;;;5041906;28;20052;-74
2024/03/14 08:26:09;;;;;;;5.72;3.85;;;7.20;99.90;;;;;;5047822;28;20093;-76
2024/03/14 08:28:38;;;;;;;4.20;2.90;;;7.20;99.90;;;;;;5048575;28;20030;-74
2024/03/14 08:31:06;;;;;;;5.38;2.85;;;7.20;99.90;;;;;;5048752;28;20052;-75
2024/03/14 08:33:34;;;;;;;;;;;7.20;99.90;;;;;;5045153;28;20029;-72
2024/03/14 08:36:01;;;;;;;2.38;1.98;;;7.40;99.90;;;;;;5033954;28;19913;-74
2024/03/14 08:38:27;;;;;;;3.78;3.22;;;7.30;99.90;;;;;;5036128;28;20407;-73
2024/03/14 08:40:52;;;;;;;4.80;3.67;;;7.20;99.90;;;;;;5034825;28;20024;-74
2024/03/14 08:43:18;;;;;;;3.70;2.78;;;7.40;99.90;;;;;;5031494;28;20135;-74
2024/03/14 08:45:43;;;;;;;5.13;3.38;;;7.40;99.90;;;;;;5033184;28;20531;-73
2024/03/14 08:48:09;;;;;;;4.10;3.50;;;7.40;99.90;;;;;;5036187;28;20037;-74
2024/03/14 08:50:35;;;;;;;5.82;4.10;;;7.50;99.90;;;;;;5036455;28;20029;-74
2024/03/14 08:53:01;;;;;;;5.47;3.72;;;7.70;99.90;;;;;;5037371;28;20120;-72
2024/03/14 08:55:32;;;;;;;3.88;3.40;;;7.90;99.90;;;;;;5035475;28;20076;-73
2024/03/14 08:58:02;;;;;;;5.43;3.80;;;7.90;99.90;;;;;;5029335;28;20133;-73
2024/03/14 09:00:28;;;;;;;5.18;3.75;;;8.00;99.90;;;;;;5035939;28;20689;-72
2024/03/14 09:02:54;;;;;;;5.03;3.33;;;8.30;99.90;;;;;;5033370;28;20018;-73
2024/03/14 09:05:20;;;;;;;4.95;3.65;;;8.40;99.90;;;;;;5031375;28;20033;-73
2024/03/14 09:07:46;;;;;;;5.72;3.53;;;8.30;99.90;;;;;;5042252;28;20419;-73
2024/03/14 09:10:23;;;;;;;4.97;3.92;;;8.20;99.90;;;;;;5035396;28;20027;-73
2024/03/14 09:12:49;;;;;;;6.75;4.03;;;8.40;99.90;;;;;;5032213;28;20017;-74
2024/03/14 09:15:15;;;;;;;2.38;2.10;;;8.70;99.90;;;;;;5030184;28;20053;-74
2024/03/14 09:17:45;;;;;;;5.00;3.88;;;8.70;99.90;;;;;;5030256;28;20576;-73
2024/03/14 09:20:15;;;;;;;5.35;3.75;;;8.70;99.90;;;;;;5031945;28;20052;-74
2024/03/14 09:22:43;;;;;;;5.80;3.63;;;8.60;99.90;;;;;;5030296;28;20029;-73
2024/03/14 09:25:16;;;;;;;4.85;3.70;;;8.90;99.90;;;;;;5035602;28;20025;-73
2024/03/14 09:27:42;;;;;;;4.68;3.60;;;9.20;99.90;;;;;;5034534;28;20033;-75
2024/03/14 09:30:09;;;;;;;6.35;4.30;;;9.40;99.90;;;;;;5035336;28;20041;-73
2024/03/14 09:32:40;;;;;;;4.75;3.25;;;9.60;99.90;;;;;;5033871;28;20041;-73
2024/03/14 09:35:28;;;;;;;5.53;4.07;;;9.70;99.90;;;;;;5030863;28;20087;-73
2024/03/14 09:37:57;;;;;;;5.38;3.88;;;9.70;99.90;;;;;;5033388;28;20379;-73
2024/03/14 09:40:25;;;;;;;4.20;3.45;;;9.80;99.90;;;;;;5029969;28;20029;-73
2024/03/14 09:43:00;;;;;;;4.53;3.25;;;9.80;99.90;;;;;;5033246;28;20029;-73
2024/03/14 09:45:28;;;;;;;4.85;3.50;;;9.90;99.90;;;;;;5029750;28;20071;-73
2024/03/14 09:47:57;;;;;;;4.15;3.33;;;10.00;99.90;;;;;;5031571;28;20033;-73
2024/03/14 09:50:24;;;;;;;5.35;3.70;;;10.00;99.90;;;;;;5029354;28;20058;-72
2024/03/14 09:52:51;;;;;;;5.47;3.45;;;10.00;99.90;;;;;;5025164;28;20097;-73
2024/03/14 09:55:17;;;;;;;4.95;3.20;;;10.30;99.90;;;;;;5026043;28;20088;-73
2024/03/14 09:57:43;;;;;;;4.45;3.50;;;10.60;99.90;;;;;;5030632;28;20306;-73
2024/03/14 10:00:19;;;;;;;4.38;3.45;;;10.50;99.90;;;;;;5028795;28;20026;-73
2024/03/14 10:02:49;;;;;;;2.97;2.53;;;10.80;99.90;;;;;;5023492;28;20049;-73
2024/03/14 10:05:16;;;;;;;3.67;3.03;;;10.80;99.90;;;;;;5025461;28;20053;-73
2024/03/14 10:07:42;;;;;;;3.88;3.08;;;11.00;99.90;;;;;;5025496;28;20333;-73
2024/03/14 10:10:08;;;;;;;4.00;3.17;;;11.30;99.90;;;;;;5025328;28;20085;-73
2024/03/14 10:12:38;;;;;;;4.38;3.22;;;11.30;99.90;;;;;;5030027;28;20068;-73
2024/03/14 10:15:12;;;;;;;4.15;3.20;;;11.30;99.90;;;;;;5042227;28;20033;-74
2024/03/14 10:17:42;;;;;;;5.72;3.42;;;11.50;99.90;;;;;;5027260;28;20126;-73
2024/03/14 10:20:12;;;;;;;4.38;3.15;;;11.60;99.90;;;;;;5023357;28;20093;-73
2024/03/14 10:22:38;;;;;;;4.18;3.10;;;11.80;99.90;;;;;;5027022;28;20052;-74
2024/03/14 10:25:05;;;;;;;4.45;3.05;;;11.90;99.90;;;;;;5028587;28;20117;-73
2024/03/14 10:27:32;;;;;;;4.65;3.20;;;12.10;99.90;;;;;;5029108;28;20713;-73
2024/03/14 10:29:58;;;;;;;3.47;3.08;;;12.30;99.90;;;;;;5029316;28;20438;-73
2024/03/14 10:32:24;;;;;;;4.40;3.22;;;12.50;99.90;;;;;;5027018;28;20045;-73
2024/03/14 10:34:51;;;;;;;4.80;3.60;;;12.60;99.90;;;;;;5030183;28;20089;-73
2024/03/14 10:37:18;;;;;;;4.07;3.03;;;12.50;99.90;;;;;;5029823;28;20053;-73
2024/03/14 10:39:54;;;;;;;4.50;3.20;;;12.50;99.90;;;;;;5027455;28;20017;-73
2024/03/14 10:42:23;;;;;;;4.03;3.00;;;12.50;99.90;;;;;;5031275;28;20029;-75
2024/03/14 10:44:50;;;;;;;4.10;2.92;;;12.40;99.90;;;;;;5027097;28;20057;-74
2024/03/14 10:47:18;;;;;;;4.22;2.75;;;12.30;99.90;;;;;;5028952;28;20030;-73
2024/03/14 10:49:46;;;;;;;3.72;2.88;;;12.20;99.90;;;;;;5022892;28;20087;-73
2024/03/14 10:52:17;;;;;;;4.72;2.75;;;12.20;99.90;;;;;;5029624;28;20033;-73
2024/03/14 10:54:46;;;;;;;3.10;2.80;;;12.10;99.90;;;;;;5029680;28;20033;-73
2024/03/14 10:57:18;;;;;;;3.42;2.70;;;12.10;99.90;;;;;;5023707;28;20037;-73
2024/03/14 10:59:44;;;;;;;2.90;2.60;;;12.40;99.90;;;;;;5033365;28;20545;-73
2024/03/14 11:02:14;;;;;;;3.03;2.63;;;12.70;99.90;;;;;;5027683;28;20025;-73
2024/03/14 11:04:46;;;;;;;3.92;2.90;;;13.10;99.90;;;;;;5036763;28;20034;-74
2024/03/14 11:07:12;;;;;;;3.03;2.60;;;13.10;99.90;;;;;;5025791;28;20543;-73
2024/03/14 11:09:56;;;;;;;4.40;2.70;;;13.20;99.90;;;;;;5028561;28;20581;-73
2024/03/14 11:12:27;;;;;;;3.42;2.88;;;13.50;99.90;;;;;;5027037;28;20040;-73
2024/03/14 11:14:59;;;;;;;2.30;2.10;;;13.40;99.90;;;;;;5025028;28;20022;-73
2024/03/14 11:17:26;;;;;;;1.98;1.80;;;13.20;99.90;;;;;;5025683;28;20116;-72
2024/03/14 11:19:56;;;;;;;2.15;1.73;;;13.20;99.90;;;;;;5028346;28;20021;-73
2024/03/14 11:22:22;;;;;;;2.03;1.60;;;13.20;99.90;;;;;;5040054;28;20030;-72
2024/03/14 11:24:52;;;;;;;1.60;1.50;;;13.20;99.90;;;;;;5024966;28;20752;-73
2024/03/14 11:27:20;;;;;;;1.95;1.50;;;13.20;99.90;;;;;;5028222;28;20026;-73
2024/03/14 11:29:48;;;;;;;2.78;1.50;;;13.40;99.90;;;;;;5027338;28;20089;-73
2024/03/14 11:32:20;;;;;;;1.70;1.60;;;13.40;99.90;;;;;;5025075;28;20372;-73
2024/03/14 11:34:49;;;;;;;1.80;1.70;;;13.30;99.90;;;;;;5026255;28;20052;-73
2024/03/14 11:37:14;;;;;;;;;;;13.50;99.90;;;;;;5029724;28;20032;-72
2024/03/14 11:39:46;;;;;;;2.30;1.52;;;13.50;99.90;;;;;;5027787;28;19909;-72
2024/03/14 11:42:14;;;;;;;1.50;1.30;;;13.50;99.90;;;;;;5023445;28;20021;-74
2024/03/14 11:44:44;;;;;;;1.50;1.40;;;13.70;99.90;;;;;;5026480;28;20878;-73
2024/03/14 11:47:14;;;;;;;1.60;1.50;;;13.80;99.90;;;;;;5023328;28;20091;-73
2024/03/14 11:49:43;;;;;;;1.60;1.20;;;13.80;99.90;;;;;;5029131;28;20040;-74
2024/03/14 11:52:14;;;;;;;2.70;1.52;;;14.00;99.90;;;;;;5027687;28;20043;-72
2024/03/14 11:54:41;;;;;;;3.08;1.30;;;14.00;99.90;;;;;;5029991;28;20034;-73
2024/03/14 11:57:14;;;;;;;1.50;1.35;;;13.90;99.90;;;;;;5020590;28;20041;-73
2024/03/14 11:59:41;;;;;;;1.77;1.30;;;14.00;99.90;;;;;;5029248;28;20017;-73
2024/03/14 12:02:08;;;;;;;2.40;1.40;;;14.00;99.90;;;;;;5028647;28;20033;-72
2024/03/14 12:04:35;;;;;;;1.38;1.20;;;13.90;99.90;;;;;;5021167;28;20529;-73
2024/03/14 12:07:03;;;;;;;1.27;1.17;;;13.90;99.90;;;;;;5025152;28;20026;-72
2024/03/14 12:09:33;;;;;;;1.50;1.40;;;13.80;99.90;;;;;;5025476;28;20105;-73
2024/03/14 12:11:58;;;;;;;2.97;1.80;;;14.00;99.90;;;;;;5027843;28;20018;-73
2024/03/14 12:14:24;;;;;;;2.28;1.70;;;14.10;99.90;;;;;;5025487;28;20110;-73
2024/03/14 12:16:50;;;;;;;1.55;1.45;;;14.00;99.90;;;;;;5027159;28;20076;-73
2024/03/14 12:19:16;;;;;;;1.33;1.25;;;13.90;99.90;;;;;;5026507;28;20419;-73
2024/03/14 12:21:43;;;;;;;1.52;1.30;;;13.80;99.90;;;;;;5025819;28;20035;-73
2024/03/14 12:24:15;;;;;;;2.42;1.25;;;14.00;99.90;;;;;;5021731;28;20029;-72
2024/03/14 12:26:44;;;;;;;1.60;1.20;;;14.10;99.90;;;;;;5024182;28;20490;-73
2024/03/14 12:29:09;;;;;;;1.75;1.17;;;14.30;99.90;;;;;;5020619;28;20033;-73
2024/03/14 12:31:40;;;;;;;1.13;1.02;;;14.50;99.90;;;;;;5025998;28;20042;-73
2024/03/14 12:34:06;;;;;;;1.73;1.50;;;14.40;99.90;;;;;;5028033;28;20521;-73
2024/03/14 12:36:32;;;;;;;1.23;1.13;;;14.50;99.90;;;;;;5024278;28;20033;-73
2024/03/14 12:38:59;;;;;;;1.90;1.60;;;14.40;99.90;;;;;;5030072;28;20025;-73
2024/03/14 12:41:25;;;;;;;1.08;0.98;;;14.50;99.90;;;;;;5027147;28;20036;-73
2024/03/14 12:43:52;;;;;;;1.77;1.02;;;14.60;99.90;;;;;;5029660;28;20040;-72
2024/03/14 12:46:23;;;;;;;1.48;1.15;;;14.80;99.90;;;;;;5031285;28;20037;-73
2024/03/14 12:48:49;;;;;;;1.00;1.00;;;14.90;99.90;;;;;;5027840;28;20343;-72
2024/03/14 12:51:24;;;;;;;1.45;1.10;;;14.80;99.90;;;;;;5032325;28;20037;-73
2024/03/14 12:53:56;;;;;;;0.82;0.82;;;14.90;99.90;;;;;;5031015;28;20051;-73
2024/03/14 12:56:25;;;;;;;1.15;1.15;;;14.90;99.90;;;;;;5031664;28;20028;-73
2024/03/14 12:58:56;;;;;;;1.50;1.10;;;14.90;99.90;;;;;;5030927;28;20077;-73